sensor_id;sensor_type;location;lat;lon;timestamp;P1;durP1;ratioP1;P2;durP2;ratioP2
81365;SDS011;70822;51.990;22.766;2023-09-07T00:03:14;9.47;;;5.80;;
81365;SDS011;70822;51.990;22.766;2023-09-07T00:18:19;11.77;;;7.00;;
81365;SDS011;70822;51.990;22.766;2023-09-07T00:33:24;10.97;;;6.13;;
81365;SDS011;70822;51.990;22.766;2023-09-07T00:48:29;11.73;;;6.77;;
81365;SDS011;70822;51.990;22.766;2023-09-07T01:03:34;11.80;;;7.50;;
81365;SDS011;70822;51.990;22.766;2023-09-07T01:18:39;9.20;;;6.00;;
81365;SDS011;70822;51.990;22.766;2023-09-07T01:33:44;8.50;;;6.00;;
81365;SDS011;70822;51.990;22.766;2023-09-07T01:48:49;8.33;;;5.67;;
81365;SDS011;70822;51.990;22.766;2023-09-07T02:03:55;9.93;;;6.33;;
81365;SDS011;70822;51.990;22.766;2023-09-07T02:19:04;8.80;;;6.27;;
81365;SDS011;70822;51.990;22.766;2023-09-07T02:34:10;11.27;;;7.80;;
81365;SDS011;70822;51.990;22.766;2023-09-07T02:49:15;11.17;;;8.00;;
81365;SDS011;70822;51.990;22.766;2023-09-07T03:04:21;17.47;;;8.10;;
81365;SDS011;70822;51.990;22.766;2023-09-07T03:19:26;10.60;;;6.53;;
81365;SDS011;70822;51.990;22.766;2023-09-07T03:34:31;11.37;;;7.23;;
81365;SDS011;70822;51.990;22.766;2023-09-07T03:49:36;10.07;;;6.77;;
81365;SDS011;70822;51.990;22.766;2023-09-07T04:04:42;11.80;;;7.27;;
81365;SDS011;70822;51.990;22.766;2023-09-07T04:19:47;8.53;;;6.50;;
81365;SDS011;70822;51.990;22.766;2023-09-07T04:34:54;9.17;;;6.40;;
81365;SDS011;70822;51.990;22.766;2023-09-07T04:50:01;8.60;;;6.20;;
81365;SDS011;70822;51.990;22.766;2023-09-07T05:05:06;12.03;;;6.37;;
81365;SDS011;70822;51.990;22.766;2023-09-07T05:20:12;15.63;;;6.03;;
81365;SDS011;70822;51.990;22.766;2023-09-07T05:35:17;8.70;;;5.10;;
81365;SDS011;70822;51.990;22.766;2023-09-07T05:50:22;10.97;;;5.57;;
81365;SDS011;70822;51.990;22.766;2023-09-07T06:05:26;4.77;;;3.17;;
81365;SDS011;70822;51.990;22.766;2023-09-07T06:20:34;7.20;;;4.17;;
81365;SDS011;70822;51.990;22.766;2023-09-07T06:35:40;8.87;;;4.93;;
81365;SDS011;70822;51.990;22.766;2023-09-07T06:50:44;5.90;;;4.40;;
81365;SDS011;70822;51.990;22.766;2023-09-07T07:20:54;5.23;;;3.73;;
81365;SDS011;70822;51.990;22.766;2023-09-07T07:35:59;5.43;;;3.90;;
81365;SDS011;70822;51.990;22.766;2023-09-07T07:51:06;6.33;;;3.33;;
81365;SDS011;70822;51.990;22.766;2023-09-07T08:06:13;6.10;;;3.27;;
81365;SDS011;70822;51.990;22.766;2023-09-07T08:21:18;5.00;;;3.00;;
81365;SDS011;70822;51.990;22.766;2023-09-07T08:36:23;7.17;;;3.53;;
81365;SDS011;70822;51.990;22.766;2023-09-07T08:51:28;3.73;;;2.73;;
81365;SDS011;70822;51.990;22.766;2023-09-07T09:06:33;5.43;;;3.00;;
81365;SDS011;70822;51.990;22.766;2023-09-07T09:21:38;7.30;;;2.83;;
81365;SDS011;70822;51.990;22.766;2023-09-07T09:36:43;3.57;;;2.30;;
81365;SDS011;70822;51.990;22.766;2023-09-07T09:51:47;2.73;;;2.00;;
81365;SDS011;70822;51.990;22.766;2023-09-07T10:06:58;2.70;;;2.13;;
81365;SDS011;70822;51.990;22.766;2023-09-07T10:22:09;5.10;;;2.43;;
81365;SDS011;70822;51.990;22.766;2023-09-07T10:37:27;3.87;;;2.50;;
81365;SDS011;70822;51.990;22.766;2023-09-07T10:52:40;5.07;;;2.97;;
81365;SDS011;70822;51.990;22.766;2023-09-07T11:07:45;3.03;;;2.57;;
81365;SDS011;70822;51.990;22.766;2023-09-07T11:22:50;3.90;;;2.20;;
81365;SDS011;70822;51.990;22.766;2023-09-07T11:38:05;2.63;;;2.23;;
81365;SDS011;70822;51.990;22.766;2023-09-07T11:53:12;4.37;;;2.63;;
81365;SDS011;70822;51.990;22.766;2023-09-07T12:08:17;4.07;;;2.77;;
81365;SDS011;70822;51.990;22.766;2023-09-07T12:23:22;5.47;;;3.27;;
81365;SDS011;70822;51.990;22.766;2023-09-07T12:38:27;3.33;;;3.03;;
81365;SDS011;70822;51.990;22.766;2023-09-07T12:53:33;3.80;;;2.90;;
81365;SDS011;70822;51.990;22.766;2023-09-07T13:08:38;10.90;;;3.40;;
81365;SDS011;70822;51.990;22.766;2023-09-07T13:23:43;4.17;;;3.20;;
81365;SDS011;70822;51.990;22.766;2023-09-07T13:38:47;4.23;;;2.80;;
81365;SDS011;70822;51.990;22.766;2023-09-07T13:53:53;4.70;;;2.70;;
81365;SDS011;70822;51.990;22.766;2023-09-07T14:08:58;6.00;;;4.00;;
81365;SDS011;70822;51.990;22.766;2023-09-07T14:24:06;2.73;;;2.27;;
81365;SDS011;70822;51.990;22.766;2023-09-07T14:39:11;5.13;;;2.47;;
81365;SDS011;70822;51.990;22.766;2023-09-07T14:54:16;4.33;;;2.57;;
81365;SDS011;70822;51.990;22.766;2023-09-07T15:09:21;3.57;;;2.33;;
81365;SDS011;70822;51.990;22.766;2023-09-07T15:24:26;3.77;;;2.73;;
81365;SDS011;70822;51.990;22.766;2023-09-07T15:39:31;4.47;;;3.00;;
81365;SDS011;70822;51.990;22.766;2023-09-07T15:54:36;7.63;;;3.57;;
81365;SDS011;70822;51.990;22.766;2023-09-07T16:09:41;5.93;;;3.00;;
81365;SDS011;70822;51.990;22.766;2023-09-07T16:24:46;7.10;;;2.60;;
81365;SDS011;70822;51.990;22.766;2023-09-07T16:39:51;5.23;;;3.10;;
81365;SDS011;70822;51.990;22.766;2023-09-07T16:54:56;7.23;;;2.70;;
81365;SDS011;70822;51.990;22.766;2023-09-07T17:10:01;6.17;;;3.10;;
81365;SDS011;70822;51.990;22.766;2023-09-07T17:25:06;9.60;;;3.97;;
81365;SDS011;70822;51.990;22.766;2023-09-07T17:40:12;9.97;;;5.77;;
81365;SDS011;70822;51.990;22.766;2023-09-07T17:55:17;13.17;;;5.13;;
81365;SDS011;70822;51.990;22.766;2023-09-07T18:10:22;16.97;;;7.63;;
81365;SDS011;70822;51.990;22.766;2023-09-07T18:25:27;15.13;;;7.03;;
81365;SDS011;70822;51.990;22.766;2023-09-07T18:40:32;14.27;;;7.90;;
81365;SDS011;70822;51.990;22.766;2023-09-07T18:55:39;6.40;;;3.60;;
81365;SDS011;70822;51.990;22.766;2023-09-07T19:10:44;7.23;;;4.07;;
81365;SDS011;70822;51.990;22.766;2023-09-07T19:25:50;5.87;;;3.10;;
81365;SDS011;70822;51.990;22.766;2023-09-07T19:40:55;5.30;;;3.73;;
81365;SDS011;70822;51.990;22.766;2023-09-07T19:56:05;5.13;;;2.90;;
81365;SDS011;70822;51.990;22.766;2023-09-07T20:11:11;12.97;;;9.63;;
81365;SDS011;70822;51.990;22.766;2023-09-07T20:26:18;7.37;;;3.20;;
81365;SDS011;70822;51.990;22.766;2023-09-07T20:41:23;10.27;;;4.60;;
81365;SDS011;70822;51.990;22.766;2023-09-07T20:56:28;8.47;;;5.13;;
81365;SDS011;70822;51.990;22.766;2023-09-07T21:11:33;6.47;;;3.40;;
81365;SDS011;70822;51.990;22.766;2023-09-07T21:26:38;5.13;;;3.00;;
81365;SDS011;70822;51.990;22.766;2023-09-07T21:41:45;9.37;;;4.47;;
81365;SDS011;70822;51.990;22.766;2023-09-07T21:56:52;5.40;;;3.00;;
81365;SDS011;70822;51.990;22.766;2023-09-07T22:11:57;4.77;;;2.77;;
81365;SDS011;70822;51.990;22.766;2023-09-07T22:27:03;5.13;;;2.70;;
81365;SDS011;70822;51.990;22.766;2023-09-07T22:42:10;4.57;;;2.77;;
81365;SDS011;70822;51.990;22.766;2023-09-07T22:57:14;4.47;;;2.93;;
81365;SDS011;70822;51.990;22.766;2023-09-07T23:12:23;5.40;;;2.77;;
81365;SDS011;70822;51.990;22.766;2023-09-07T23:27:30;7.17;;;3.13;;
81365;SDS011;70822;51.990;22.766;2023-09-07T23:42:35;9.80;;;4.70;;
81365;SDS011;70822;51.990;22.766;2023-09-07T23:57:40;3.70;;;2.57;;
